Terminal Aerodrome Forecast
Issued by NWS Cleveland, OH

Home | Current Version | Previous Version | Graphics & Text | Print | Product List | Glossary On
Versions: 1 2 3 4 5 6 7 8 9 10 11 12 13 14 15 16 17 18 19 20 21
000
FTUS41 KCLE 241300 AAA
TAFERI
TAF AMD
KERI 241312Z 2413/2512 02010KT P6SM SCT020 BKN030
     FM241600 03012KT P6SM SCT030
     FM250000 VRB03KT P6SM SKC=

USA.gov is the U.S. government's official web portal to all federal, state and local government web resources and services.